createdAt,value
2019-03-05T00:00:40.129Z,4.22
2019-03-05T00:05:45.436Z,4.17
2019-03-05T00:10:50.591Z,4.21
2019-03-05T00:15:56.323Z,4.14
2019-03-05T00:21:02.563Z,4.00
2019-03-05T00:26:08.160Z,3.92
2019-03-05T00:31:27.504Z,4.08
2019-03-05T00:36:36.654Z,4.11
2019-03-05T00:42:20.006Z,4.19
2019-03-05T00:48:04.450Z,4.27
2019-03-05T00:53:44.542Z,4.39
2019-03-05T00:59:30.868Z,4.64
2019-03-05T01:05:17.100Z,4.73
2019-03-05T01:10:23.273Z,4.78
2019-03-05T01:15:29.935Z,4.87
2019-03-05T01:20:35.087Z,4.98
2019-03-05T01:25:40.546Z,5.03
2019-03-05T01:31:07.792Z,5.00
2019-03-05T01:36:17.510Z,4.97
2019-03-05T01:41:22.661Z,4.94
2019-03-05T01:46:27.888Z,4.90
2019-03-05T01:51:33.445Z,4.77
2019-03-05T01:56:38.621Z,4.73
2019-03-05T02:01:43.862Z,4.70
2019-03-05T02:06:49.721Z,4.67
2019-03-05T02:11:54.873Z,4.57
2019-03-05T02:17:00.030Z,4.45
2019-03-05T02:22:06.441Z,4.35
2019-03-05T02:27:46.616Z,4.40
2019-03-05T02:33:02.518Z,4.37
2019-03-05T02:38:42.389Z,4.44
2019-03-05T02:44:03.399Z,4.38
2019-03-05T02:49:52.559Z,4.30
2019-03-05T02:55:37.099Z,4.20
2019-03-05T03:01:08.328Z,4.19
2019-03-05T03:06:19.793Z,4.18
2019-03-05T03:11:26.129Z,4.11
2019-03-05T03:16:31.299Z,4.13
2019-03-05T03:21:36.459Z,4.11
2019-03-05T03:26:41.622Z,4.47
2019-03-05T03:31:47.178Z,4.70
2019-03-05T03:36:54.007Z,4.52
2019-03-05T03:42:00.112Z,4.61
2019-03-05T03:47:05.630Z,4.69
2019-03-05T03:52:10.786Z,4.59
2019-03-05T03:57:15.953Z,4.87
2019-03-05T04:02:21.120Z,4.94
2019-03-05T04:07:26.726Z,4.89
2019-03-05T04:12:32.557Z,4.60
2019-03-05T04:17:37.615Z,4.77
2019-03-05T04:22:42.743Z,4.71
2019-03-05T04:27:48.051Z,4.53
2019-03-05T04:32:53.478Z,4.54
2019-03-05T04:37:58.605Z,4.29
2019-03-05T04:43:03.813Z,4.15
2019-03-05T04:48:09.014Z,4.10
2019-03-05T04:53:14.496Z,4.29
2019-03-05T04:58:20.304Z,4.46
2019-03-05T05:03:25.433Z,4.48
2019-03-05T05:08:30.571Z,4.58
2019-03-05T05:13:35.731Z,4.50
2019-03-05T05:18:41.196Z,4.44
2019-03-05T05:23:46.788Z,4.42
2019-03-05T05:28:52.162Z,4.37
2019-03-05T05:33:57.218Z,4.43
2019-03-05T05:39:02.755Z,4.37
2019-03-05T05:44:09.424Z,4.39
2019-03-05T05:49:14.472Z,4.31
2019-03-05T05:54:19.902Z,4.16
2019-03-05T05:59:24.986Z,3.94
2019-03-05T06:04:30.227Z,3.68
2019-03-05T06:09:35.626Z,3.60
2019-03-05T06:14:40.691Z,3.51
2019-03-05T06:19:46.561Z,3.48
2019-03-05T06:24:51.547Z,3.60
2019-03-05T06:29:56.683Z,3.65
2019-03-05T06:35:01.662Z,3.78
2019-03-05T06:40:09.520Z,3.83
2019-03-05T06:45:16.560Z,3.86
2019-03-05T06:50:22.794Z,4.02
2019-03-05T06:55:28.493Z,4.14
2019-03-05T07:00:37.913Z,4.25
2019-03-05T07:06:18.842Z,4.31
2019-03-05T07:12:02.229Z,4.53
2019-03-05T07:17:36.057Z,4.82
2019-03-05T07:23:22.175Z,4.90
2019-03-05T07:28:27.549Z,5.09
2019-03-05T07:33:32.688Z,5.19
2019-03-05T07:38:37.770Z,5.43
2019-03-05T07:43:43.191Z,5.43
2019-03-05T07:48:48.254Z,5.56
2019-03-05T07:53:53.646Z,5.72
2019-03-05T07:58:58.728Z,5.88
2019-03-05T08:04:04.442Z,6.02
2019-03-05T08:09:34.560Z,6.09
2019-03-05T08:14:54.779Z,6.31
2019-03-05T08:20:00.512Z,6.39
2019-03-05T08:25:08.661Z,6.51
2019-03-05T08:30:15.173Z,6.50
2019-03-05T08:35:20.701Z,6.74
2019-03-05T08:40:25.934Z,6.88
2019-03-05T08:45:31.230Z,6.93
2019-03-05T08:50:36.504Z,7.03
2019-03-05T08:55:41.592Z,7.23
2019-03-05T09:00:48.114Z,7.06
2019-03-05T09:05:53.448Z,6.99
2019-03-05T09:10:59.164Z,7.20
2019-03-05T09:16:06.347Z,7.41
2019-03-05T09:21:12.480Z,7.47
2019-03-05T09:26:18.661Z,7.53
2019-03-05T09:31:23.814Z,7.41
2019-03-05T09:36:30.143Z,7.45
2019-03-05T09:41:35.188Z,7.28
2019-03-05T09:46:40.332Z,7.29
2019-03-05T09:51:45.884Z,7.33
2019-03-05T09:56:51.052Z,7.38
2019-03-05T10:01:56.880Z,7.39
2019-03-05T10:07:03.530Z,7.43
2019-03-05T10:12:08.931Z,7.24
2019-03-05T10:17:14.320Z,7.12
2019-03-05T10:22:19.851Z,6.97
2019-03-05T10:27:24.985Z,6.94
2019-03-05T10:32:30.496Z,6.89
2019-03-05T10:37:35.912Z,6.91
2019-03-05T10:42:41.354Z,6.92
2019-03-05T10:47:47.605Z,6.84
2019-03-05T10:52:52.757Z,6.64
2019-03-05T10:57:58.470Z,6.32
2019-03-05T11:03:04.318Z,6.13
2019-03-05T11:08:13.015Z,5.78
2019-03-05T11:13:18.142Z,5.07
2019-03-05T11:18:29.271Z,5.06
2019-03-05T11:23:30.109Z,5.14
2019-03-05T11:28:35.180Z,5.13
2019-03-05T11:33:40.607Z,5.08
2019-03-05T11:38:46.138Z,4.88
2019-03-05T11:43:52.519Z,4.69
2019-03-05T11:48:57.972Z,4.56
2019-03-05T11:54:03.024Z,4.56
2019-03-05T11:59:08.177Z,4.69
2019-03-05T12:04:13.661Z,4.86
2019-03-05T12:09:19.141Z,5.06
2019-03-05T12:14:24.634Z,5.14
2019-03-05T12:19:29.773Z,5.40
2019-03-05T12:24:34.824Z,5.78
2019-03-05T12:29:40.212Z,6.18
2019-03-05T12:34:45.593Z,6.41
2019-03-05T12:39:50.716Z,6.61
2019-03-05T12:44:57.181Z,6.55
2019-03-05T12:50:03.398Z,6.69
2019-03-05T12:55:09.232Z,6.50
2019-03-05T13:00:18.129Z,6.06
2019-03-05T13:05:23.371Z,5.79
2019-03-05T13:10:34.868Z,5.56
2019-03-05T13:15:35.538Z,5.51
2019-03-05T13:20:40.947Z,5.69
2019-03-05T13:25:46.080Z,5.82
2019-03-05T13:30:51.247Z,5.88
2019-03-05T13:35:56.344Z,6.22
2019-03-05T13:41:01.479Z,6.29
2019-03-05T13:46:08.426Z,6.31
2019-03-05T13:51:50.707Z,6.49
2019-03-05T13:57:51.413Z,6.71
2019-03-05T14:03:07.967Z,6.74
2019-03-05T14:08:33.815Z,6.87
2019-03-05T14:13:38.874Z,7.28
2019-03-05T14:18:44.030Z,7.22
2019-03-05T14:23:50.166Z,7.04
2019-03-05T14:28:55.306Z,7.03
2019-03-05T14:34:00.420Z,6.89
2019-03-05T14:39:25.819Z,6.83
2019-03-05T14:44:39.334Z,6.91
2019-03-05T14:49:38.611Z,7.46
2019-03-05T14:54:44.588Z,7.19
2019-03-05T14:59:50.574Z,6.32
2019-03-05T15:04:56.040Z,5.58
2019-03-05T15:10:06.032Z,5.59
2019-03-05T15:15:15.032Z,5.82
2019-03-05T15:20:20.559Z,6.58
2019-03-05T15:25:25.723Z,6.54
2019-03-05T15:30:31.221Z,6.59
2019-03-05T15:35:36.213Z,6.50
2019-03-05T15:40:41.828Z,6.95
2019-03-05T15:45:47.075Z,7.35
2019-03-05T15:50:52.125Z,7.50
2019-03-05T15:55:57.632Z,7.40
2019-03-05T16:01:02.841Z,7.58
2019-03-05T16:06:08.151Z,7.40
2019-03-05T16:11:13.349Z,7.32
2019-03-05T16:16:19.403Z,6.94
2019-03-05T16:21:24.685Z,6.99
2019-03-05T16:26:29.735Z,6.52
2019-03-05T16:31:56.878Z,6.31
2019-03-05T16:37:39.186Z,6.08
2019-03-05T16:42:49.024Z,6.00
2019-03-05T16:48:02.272Z,5.87
2019-03-05T16:53:21.453Z,5.69
2019-03-05T16:58:54.044Z,5.59
2019-03-05T17:04:20.600Z,5.68
2019-03-05T17:09:37.746Z,5.64
2019-03-05T17:14:43.364Z,5.27
2019-03-05T17:19:49.699Z,5.12
2019-03-05T17:24:56.308Z,5.00
2019-03-05T17:30:02.145Z,4.88
2019-03-05T17:35:08.817Z,4.76
2019-03-05T17:40:16.258Z,4.67
2019-03-05T17:45:22.517Z,4.49
2019-03-05T17:50:28.242Z,4.31
2019-03-05T17:55:33.405Z,4.18
2019-03-05T18:00:40.657Z,4.19
2019-03-05T18:05:46.538Z,3.97
2019-03-05T18:10:51.597Z,3.97
2019-03-05T18:15:58.245Z,3.81
2019-03-05T18:21:03.692Z,3.79
2019-03-05T18:26:09.959Z,3.67
2019-03-05T18:31:15.647Z,3.73
2019-03-05T18:36:21.246Z,3.86
2019-03-05T18:41:28.016Z,3.71
2019-03-05T18:46:33.081Z,3.60
2019-03-05T18:51:41.356Z,3.81
2019-03-05T18:56:47.663Z,3.89
2019-03-05T19:01:52.718Z,3.88
2019-03-05T19:06:59.263Z,3.71
2019-03-05T19:12:04.594Z,3.72
2019-03-05T19:17:09.729Z,3.78
2019-03-05T19:22:15.023Z,3.78
2019-03-05T19:27:26.083Z,3.71
2019-03-05T19:32:27.623Z,3.72
2019-03-05T19:37:33.049Z,3.71
2019-03-05T19:42:38.442Z,3.78
2019-03-05T19:47:44.020Z,3.65
2019-03-05T19:52:49.517Z,3.65
2019-03-05T19:58:08.386Z,3.53
2019-03-05T20:03:13.906Z,3.53
2019-03-05T20:08:19.110Z,3.50
2019-03-05T20:13:24.224Z,3.48
2019-03-05T20:18:29.278Z,3.42
2019-03-05T20:23:35.050Z,3.26
2019-03-05T20:28:40.689Z,3.18
2019-03-05T20:33:45.747Z,3.12
2019-03-05T20:38:51.026Z,3.12
2019-03-05T20:43:56.153Z,2.90
2019-03-05T20:49:02.097Z,2.70
2019-03-05T20:54:07.541Z,2.55
2019-03-05T20:59:13.523Z,2.48
2019-03-05T21:04:19.429Z,2.45
2019-03-05T21:09:25.452Z,2.42
2019-03-05T21:14:30.500Z,2.31
2019-03-05T21:19:35.560Z,2.22
2019-03-05T21:24:41.023Z,2.25
2019-03-05T21:29:46.089Z,2.24
2019-03-05T21:34:51.508Z,2.22
2019-03-05T21:39:56.953Z,2.30
2019-03-05T21:45:04.002Z,2.20
2019-03-05T21:50:11.824Z,2.06
2019-03-05T21:55:17.311Z,1.96
2019-03-05T22:00:24.689Z,1.97
2019-03-05T22:05:30.371Z,1.93
2019-03-05T22:10:35.503Z,1.87
2019-03-05T22:15:41.594Z,1.85
2019-03-05T22:20:46.721Z,1.80
2019-03-05T22:25:51.789Z,1.78
2019-03-05T22:30:57.128Z,1.76
2019-03-05T22:36:02.193Z,1.68
2019-03-05T22:41:07.390Z,1.67
2019-03-05T22:46:12.928Z,1.68
2019-03-05T22:51:18.384Z,1.63
2019-03-05T22:56:24.895Z,1.64
2019-03-05T23:01:38.816Z,1.60
2019-03-05T23:06:44.317Z,1.62
2019-03-05T23:11:50.454Z,1.67
2019-03-05T23:16:55.584Z,1.64
2019-03-05T23:22:00.959Z,1.61
2019-03-05T23:27:07.896Z,1.89
2019-03-05T23:32:13.517Z,2.29
2019-03-05T23:37:19.752Z,2.28
2019-03-05T23:42:26.757Z,2.20
2019-03-05T23:47:31.885Z,2.04
2019-03-05T23:52:37.052Z,2.01
2019-03-05T23:57:42.685Z,1.98
